sensor_id;sensor_type;location;lat;lon;timestamp;P1;durP1;ratioP1;P2;durP2;ratioP2
22007;SDS011;11168;56.976;24.168;2023-06-26T00:01:32;2.88;;;1.10;;
22007;SDS011;11168;56.976;24.168;2023-06-26T00:04:00;1.08;;;0.90;;
22007;SDS011;11168;56.976;24.168;2023-06-26T00:06:28;2.20;;;1.17;;
22007;SDS011;11168;56.976;24.168;2023-06-26T00:08:55;1.38;;;0.98;;
22007;SDS011;11168;56.976;24.168;2023-06-26T00:11:22;1.58;;;0.85;;
22007;SDS011;11168;56.976;24.168;2023-06-26T00:13:50;1.30;;;0.93;;
22007;SDS011;11168;56.976;24.168;2023-06-26T00:16:17;6.40;;;1.10;;
22007;SDS011;11168;56.976;24.168;2023-06-26T00:18:44;4.05;;;1.10;;
22007;SDS011;11168;56.976;24.168;2023-06-26T00:21:11;1.48;;;0.75;;
22007;SDS011;11168;56.976;24.168;2023-06-26T00:23:38;2.33;;;1.08;;
22007;SDS011;11168;56.976;24.168;2023-06-26T00:26:06;1.70;;;1.00;;
22007;SDS011;11168;56.976;24.168;2023-06-26T00:28:33;2.15;;;1.20;;
22007;SDS011;11168;56.976;24.168;2023-06-26T00:31:00;1.65;;;1.00;;
22007;SDS011;11168;56.976;24.168;2023-06-26T00:33:27;1.90;;;1.25;;
22007;SDS011;11168;56.976;24.168;2023-06-26T00:35:54;3.30;;;1.33;;
22007;SDS011;11168;56.976;24.168;2023-06-26T00:38:21;1.42;;;1.05;;
22007;SDS011;11168;56.976;24.168;2023-06-26T00:40:48;3.17;;;0.93;;
22007;SDS011;11168;56.976;24.168;2023-06-26T00:43:15;1.80;;;0.90;;
22007;SDS011;11168;56.976;24.168;2023-06-26T00:45:42;2.33;;;0.93;;
22007;SDS011;11168;56.976;24.168;2023-06-26T00:48:10;2.25;;;0.85;;
22007;SDS011;11168;56.976;24.168;2023-06-26T00:50:38;2.35;;;0.73;;
22007;SDS011;11168;56.976;24.168;2023-06-26T00:53:07;2.92;;;0.90;;
22007;SDS011;11168;56.976;24.168;2023-06-26T00:55:35;2.30;;;0.73;;
22007;SDS011;11168;56.976;24.168;2023-06-26T00:58:03;4.82;;;1.08;;
22007;SDS011;11168;56.976;24.168;2023-06-26T01:00:30;1.77;;;0.80;;
22007;SDS011;11168;56.976;24.168;2023-06-26T01:02:57;4.25;;;1.08;;
22007;SDS011;11168;56.976;24.168;2023-06-26T01:05:27;1.00;;;0.63;;
22007;SDS011;11168;56.976;24.168;2023-06-26T01:07:56;2.92;;;0.90;;
22007;SDS011;11168;56.976;24.168;2023-06-26T01:10:25;1.30;;;0.80;;
22007;SDS011;11168;56.976;24.168;2023-06-26T01:12:54;2.05;;;0.75;;
22007;SDS011;11168;56.976;24.168;2023-06-26T01:15:21;2.15;;;0.80;;
22007;SDS011;11168;56.976;24.168;2023-06-26T01:17:49;0.80;;;0.50;;
22007;SDS011;11168;56.976;24.168;2023-06-26T01:20:18;0.95;;;0.63;;
22007;SDS011;11168;56.976;24.168;2023-06-26T01:22:55;1.30;;;0.70;;
22007;SDS011;11168;56.976;24.168;2023-06-26T01:28:34;0.70;;;0.70;;
22007;SDS011;11168;56.976;24.168;2023-06-26T01:31:04;0.75;;;0.50;;
22007;SDS011;11168;56.976;24.168;2023-06-26T01:33:32;0.93;;;0.70;;
22007;SDS011;11168;56.976;24.168;2023-06-26T01:35:59;0.60;;;0.60;;
22007;SDS011;11168;56.976;24.168;2023-06-26T01:38:27;0.60;;;0.60;;
22007;SDS011;11168;56.976;24.168;2023-06-26T01:40:54;1.10;;;0.70;;
22007;SDS011;11168;56.976;24.168;2023-06-26T01:43:24;0.95;;;0.60;;
22007;SDS011;11168;56.976;24.168;2023-06-26T01:46:31;0.98;;;0.88;;
22007;SDS011;11168;56.976;24.168;2023-06-26T01:52:07;1.13;;;0.88;;
22007;SDS011;11168;56.976;24.168;2023-06-26T01:54:38;2.28;;;0.80;;
22007;SDS011;11168;56.976;24.168;2023-06-26T01:57:11;1.00;;;0.90;;
22007;SDS011;11168;56.976;24.168;2023-06-26T01:59:39;2.33;;;0.85;;
22007;SDS011;11168;56.976;24.168;2023-06-26T02:02:08;1.30;;;0.95;;
22007;SDS011;11168;56.976;24.168;2023-06-26T02:04:35;1.33;;;0.88;;
22007;SDS011;11168;56.976;24.168;2023-06-26T02:07:03;1.45;;;0.80;;
22007;SDS011;11168;56.976;24.168;2023-06-26T02:09:31;1.88;;;0.98;;
22007;SDS011;11168;56.976;24.168;2023-06-26T02:11:57;1.25;;;1.00;;
22007;SDS011;11168;56.976;24.168;2023-06-26T02:14:24;1.35;;;0.93;;
22007;SDS011;11168;56.976;24.168;2023-06-26T02:16:51;1.52;;;1.00;;
22007;SDS011;11168;56.976;24.168;2023-06-26T02:19:18;1.17;;;0.80;;
22007;SDS011;11168;56.976;24.168;2023-06-26T02:21:48;1.30;;;0.93;;
22007;SDS011;11168;56.976;24.168;2023-06-26T02:24:16;4.07;;;1.50;;
22007;SDS011;11168;56.976;24.168;2023-06-26T02:26:43;3.47;;;1.02;;
22007;SDS011;11168;56.976;24.168;2023-06-26T02:29:10;3.05;;;1.08;;
22007;SDS011;11168;56.976;24.168;2023-06-26T02:31:38;3.40;;;1.20;;
22007;SDS011;11168;56.976;24.168;2023-06-26T02:34:05;4.03;;;1.00;;
22007;SDS011;11168;56.976;24.168;2023-06-26T02:36:32;3.90;;;1.15;;
22007;SDS011;11168;56.976;24.168;2023-06-26T02:38:59;1.65;;;1.10;;
22007;SDS011;11168;56.976;24.168;2023-06-26T02:41:26;2.50;;;1.15;;
22007;SDS011;11168;56.976;24.168;2023-06-26T02:43:53;3.15;;;1.08;;
22007;SDS011;11168;56.976;24.168;2023-06-26T02:46:20;1.20;;;1.00;;
22007;SDS011;11168;56.976;24.168;2023-06-26T02:48:47;2.05;;;1.20;;
22007;SDS011;11168;56.976;24.168;2023-06-26T02:51:13;4.65;;;1.42;;
22007;SDS011;11168;56.976;24.168;2023-06-26T02:53:41;1.02;;;0.93;;
22007;SDS011;11168;56.976;24.168;2023-06-26T02:56:08;1.65;;;1.10;;
22007;SDS011;11168;56.976;24.168;2023-06-26T02:58:35;3.60;;;1.17;;
22007;SDS011;11168;56.976;24.168;2023-06-26T03:01:02;2.20;;;1.58;;
22007;SDS011;11168;56.976;24.168;2023-06-26T03:03:29;4.75;;;1.67;;
22007;SDS011;11168;56.976;24.168;2023-06-26T03:05:56;1.77;;;1.52;;
22007;SDS011;11168;56.976;24.168;2023-06-26T03:08:23;3.47;;;1.40;;
22007;SDS011;11168;56.976;24.168;2023-06-26T03:10:50;1.63;;;1.40;;
22007;SDS011;11168;56.976;24.168;2023-06-26T03:13:17;1.77;;;1.38;;
22007;SDS011;11168;56.976;24.168;2023-06-26T03:15:44;3.17;;;1.55;;
22007;SDS011;11168;56.976;24.168;2023-06-26T03:18:11;2.72;;;1.50;;
22007;SDS011;11168;56.976;24.168;2023-06-26T03:20:38;2.20;;;1.70;;
22007;SDS011;11168;56.976;24.168;2023-06-26T03:23:05;6.05;;;1.77;;
22007;SDS011;11168;56.976;24.168;2023-06-26T03:25:32;2.15;;;1.60;;
22007;SDS011;11168;56.976;24.168;2023-06-26T03:27:59;2.83;;;1.60;;
22007;SDS011;11168;56.976;24.168;2023-06-26T03:30:26;2.75;;;1.70;;
22007;SDS011;11168;56.976;24.168;2023-06-26T03:32:53;2.17;;;1.90;;
22007;SDS011;11168;56.976;24.168;2023-06-26T03:35:20;2.08;;;1.80;;
22007;SDS011;11168;56.976;24.168;2023-06-26T03:37:48;2.28;;;1.65;;
22007;SDS011;11168;56.976;24.168;2023-06-26T03:40:15;4.30;;;1.85;;
22007;SDS011;11168;56.976;24.168;2023-06-26T03:42:42;2.42;;;1.77;;
22007;SDS011;11168;56.976;24.168;2023-06-26T03:45:09;3.67;;;2.20;;
22007;SDS011;11168;56.976;24.168;2023-06-26T03:47:36;4.45;;;1.98;;
22007;SDS011;11168;56.976;24.168;2023-06-26T03:50:03;2.85;;;1.90;;
22007;SDS011;11168;56.976;24.168;2023-06-26T03:52:31;4.25;;;2.33;;
22007;SDS011;11168;56.976;24.168;2023-06-26T03:54:58;2.83;;;1.58;;
22007;SDS011;11168;56.976;24.168;2023-06-26T03:57:25;6.78;;;2.17;;
22007;SDS011;11168;56.976;24.168;2023-06-26T03:59:52;4.57;;;2.20;;
22007;SDS011;11168;56.976;24.168;2023-06-26T04:02:19;4.25;;;2.10;;
22007;SDS011;11168;56.976;24.168;2023-06-26T04:04:46;3.78;;;2.35;;
22007;SDS011;11168;56.976;24.168;2023-06-26T04:07:13;4.70;;;3.42;;
22007;SDS011;11168;56.976;24.168;2023-06-26T04:09:40;4.95;;;3.60;;
22007;SDS011;11168;56.976;24.168;2023-06-26T04:12:07;6.68;;;4.60;;
22007;SDS011;11168;56.976;24.168;2023-06-26T04:14:35;7.57;;;5.90;;
22007;SDS011;11168;56.976;24.168;2023-06-26T04:17:02;10.70;;;8.73;;
22007;SDS011;11168;56.976;24.168;2023-06-26T04:19:29;14.45;;;11.98;;
22007;SDS011;11168;56.976;24.168;2023-06-26T04:21:57;13.45;;;12.05;;
22007;SDS011;11168;56.976;24.168;2023-06-26T04:24:24;17.15;;;14.18;;
22007;SDS011;11168;56.976;24.168;2023-06-26T04:26:51;15.25;;;12.70;;
22007;SDS011;11168;56.976;24.168;2023-06-26T04:29:18;16.48;;;13.27;;
22007;SDS011;11168;56.976;24.168;2023-06-26T04:31:45;17.10;;;15.35;;
22007;SDS011;11168;56.976;24.168;2023-06-26T04:34:13;17.30;;;15.43;;
22007;SDS011;11168;56.976;24.168;2023-06-26T04:36:40;18.75;;;16.30;;
22007;SDS011;11168;56.976;24.168;2023-06-26T04:39:07;19.75;;;17.73;;
22007;SDS011;11168;56.976;24.168;2023-06-26T04:41:34;22.17;;;19.00;;
22007;SDS011;11168;56.976;24.168;2023-06-26T04:44:01;23.98;;;20.52;;
22007;SDS011;11168;56.976;24.168;2023-06-26T04:46:29;27.23;;;19.63;;
22007;SDS011;11168;56.976;24.168;2023-06-26T04:48:56;21.90;;;19.58;;
22007;SDS011;11168;56.976;24.168;2023-06-26T04:51:24;19.17;;;15.60;;
22007;SDS011;11168;56.976;24.168;2023-06-26T04:53:53;18.05;;;12.65;;
22007;SDS011;11168;56.976;24.168;2023-06-26T04:56:20;13.40;;;11.35;;
22007;SDS011;11168;56.976;24.168;2023-06-26T04:58:53;11.20;;;8.25;;
22007;SDS011;11168;56.976;24.168;2023-06-26T05:01:20;7.97;;;6.35;;
22007;SDS011;11168;56.976;24.168;2023-06-26T05:03:47;8.25;;;5.72;;
22007;SDS011;11168;56.976;24.168;2023-06-26T05:06:14;7.85;;;5.43;;
22007;SDS011;11168;56.976;24.168;2023-06-26T05:08:41;7.95;;;5.15;;
22007;SDS011;11168;56.976;24.168;2023-06-26T05:11:08;5.55;;;4.93;;
22007;SDS011;11168;56.976;24.168;2023-06-26T05:13:35;6.75;;;4.25;;
22007;SDS011;11168;56.976;24.168;2023-06-26T05:16:03;9.63;;;3.92;;
22007;SDS011;11168;56.976;24.168;2023-06-26T05:18:30;8.77;;;3.80;;
22007;SDS011;11168;56.976;24.168;2023-06-26T05:20:57;5.15;;;2.80;;
22007;SDS011;11168;56.976;24.168;2023-06-26T05:23:24;9.32;;;3.20;;
22007;SDS011;11168;56.976;24.168;2023-06-26T05:25:55;2.72;;;2.30;;
22007;SDS011;11168;56.976;24.168;2023-06-26T05:28:23;4.18;;;2.40;;
22007;SDS011;11168;56.976;24.168;2023-06-26T05:30:51;4.47;;;2.83;;
22007;SDS011;11168;56.976;24.168;2023-06-26T05:33:18;3.05;;;2.60;;
22007;SDS011;11168;56.976;24.168;2023-06-26T05:35:48;7.00;;;2.97;;
22007;SDS011;11168;56.976;24.168;2023-06-26T05:38:15;3.83;;;2.90;;
22007;SDS011;11168;56.976;24.168;2023-06-26T05:40:42;3.75;;;2.80;;
22007;SDS011;11168;56.976;24.168;2023-06-26T05:43:10;4.13;;;3.00;;
22007;SDS011;11168;56.976;24.168;2023-06-26T05:45:37;4.47;;;3.28;;
22007;SDS011;11168;56.976;24.168;2023-06-26T05:48:04;5.97;;;2.85;;
22007;SDS011;11168;56.976;24.168;2023-06-26T05:50:32;4.53;;;2.67;;
22007;SDS011;11168;56.976;24.168;2023-06-26T05:52:59;3.63;;;3.33;;
22007;SDS011;11168;56.976;24.168;2023-06-26T05:55:29;5.40;;;2.50;;
22007;SDS011;11168;56.976;24.168;2023-06-26T05:57:57;2.72;;;2.50;;
22007;SDS011;11168;56.976;24.168;2023-06-26T06:00:26;2.58;;;2.33;;
22007;SDS011;11168;56.976;24.168;2023-06-26T06:02:53;5.88;;;2.33;;
22007;SDS011;11168;56.976;24.168;2023-06-26T06:05:21;3.00;;;2.67;;
22007;SDS011;11168;56.976;24.168;2023-06-26T06:07:49;3.03;;;2.20;;
22007;SDS011;11168;56.976;24.168;2023-06-26T06:10:16;2.22;;;1.90;;
22007;SDS011;11168;56.976;24.168;2023-06-26T06:12:43;2.30;;;2.10;;
22007;SDS011;11168;56.976;24.168;2023-06-26T06:15:11;2.35;;;2.05;;
22007;SDS011;11168;56.976;24.168;2023-06-26T06:17:39;3.60;;;2.40;;
22007;SDS011;11168;56.976;24.168;2023-06-26T06:20:06;3.85;;;2.97;;
22007;SDS011;11168;56.976;24.168;2023-06-26T06:22:34;2.70;;;2.50;;
22007;SDS011;11168;56.976;24.168;2023-06-26T06:25:01;2.70;;;2.50;;
22007;SDS011;11168;56.976;24.168;2023-06-26T06:27:28;4.55;;;3.92;;
22007;SDS011;11168;56.976;24.168;2023-06-26T06:29:55;3.58;;;3.25;;
22007;SDS011;11168;56.976;24.168;2023-06-26T06:32:22;4.20;;;3.80;;
22007;SDS011;11168;56.976;24.168;2023-06-26T06:34:50;3.58;;;3.15;;
22007;SDS011;11168;56.976;24.168;2023-06-26T06:37:17;4.38;;;3.97;;
22007;SDS011;11168;56.976;24.168;2023-06-26T06:39:44;4.40;;;3.70;;
22007;SDS011;11168;56.976;24.168;2023-06-26T06:42:11;8.25;;;3.58;;
22007;SDS011;11168;56.976;24.168;2023-06-26T06:44:38;5.03;;;3.10;;
22007;SDS011;11168;56.976;24.168;2023-06-26T06:47:06;4.47;;;3.30;;
22007;SDS011;11168;56.976;24.168;2023-06-26T06:49:35;4.03;;;2.60;;
22007;SDS011;11168;56.976;24.168;2023-06-26T06:52:02;2.80;;;1.80;;
22007;SDS011;11168;56.976;24.168;2023-06-26T06:54:30;7.20;;;2.08;;
22007;SDS011;11168;56.976;24.168;2023-06-26T06:56:57;6.25;;;2.40;;
22007;SDS011;11168;56.976;24.168;2023-06-26T06:59:25;5.15;;;2.10;;
22007;SDS011;11168;56.976;24.168;2023-06-26T07:01:52;4.20;;;1.92;;
22007;SDS011;11168;56.976;24.168;2023-06-26T07:04:19;10.60;;;2.33;;
22007;SDS011;11168;56.976;24.168;2023-06-26T07:06:46;6.95;;;1.90;;
22007;SDS011;11168;56.976;24.168;2023-06-26T07:09:13;4.13;;;1.65;;
22007;SDS011;11168;56.976;24.168;2023-06-26T07:11:41;11.45;;;2.25;;
22007;SDS011;11168;56.976;24.168;2023-06-26T07:14:08;2.47;;;1.50;;
22007;SDS011;11168;56.976;24.168;2023-06-26T07:16:35;1.73;;;1.15;;
22007;SDS011;11168;56.976;24.168;2023-06-26T07:19:02;4.38;;;1.50;;
22007;SDS011;11168;56.976;24.168;2023-06-26T07:21:29;3.05;;;1.45;;
22007;SDS011;11168;56.976;24.168;2023-06-26T07:23:57;2.88;;;1.45;;
22007;SDS011;11168;56.976;24.168;2023-06-26T07:26:24;3.00;;;1.50;;
22007;SDS011;11168;56.976;24.168;2023-06-26T07:31:32;5.05;;;1.40;;
22007;SDS011;11168;56.976;24.168;2023-06-26T07:33:59;2.25;;;1.10;;
22007;SDS011;11168;56.976;24.168;2023-06-26T07:36:26;4.55;;;1.45;;
22007;SDS011;11168;56.976;24.168;2023-06-26T07:38:53;14.63;;;1.70;;
22007;SDS011;11168;56.976;24.168;2023-06-26T07:41:21;6.75;;;1.30;;
22007;SDS011;11168;56.976;24.168;2023-06-26T07:43:48;2.72;;;1.17;;
22007;SDS011;11168;56.976;24.168;2023-06-26T07:46:16;2.05;;;1.55;;
22007;SDS011;11168;56.976;24.168;2023-06-26T07:48:43;11.18;;;1.88;;
22007;SDS011;11168;56.976;24.168;2023-06-26T07:51:09;4.18;;;1.30;;
22007;SDS011;11168;56.976;24.168;2023-06-26T07:53:36;3.63;;;1.38;;
22007;SDS011;11168;56.976;24.168;2023-06-26T07:56:04;3.15;;;1.30;;
22007;SDS011;11168;56.976;24.168;2023-06-26T07:58:31;1.55;;;1.27;;
22007;SDS011;11168;56.976;24.168;2023-06-26T08:00:58;2.80;;;1.38;;
22007;SDS011;11168;56.976;24.168;2023-06-26T08:03:25;1.48;;;1.25;;
22007;SDS011;11168;56.976;24.168;2023-06-26T08:06:00;1.92;;;1.25;;
22007;SDS011;11168;56.976;24.168;2023-06-26T08:08:27;1.85;;;1.52;;
22007;SDS011;11168;56.976;24.168;2023-06-26T08:10:55;1.75;;;1.23;;
22007;SDS011;11168;56.976;24.168;2023-06-26T08:13:24;1.60;;;1.40;;
22007;SDS011;11168;56.976;24.168;2023-06-26T08:15:51;2.53;;;1.45;;
22007;SDS011;11168;56.976;24.168;2023-06-26T08:18:18;5.18;;;1.67;;
22007;SDS011;11168;56.976;24.168;2023-06-26T08:20:45;1.75;;;1.40;;
22007;SDS011;11168;56.976;24.168;2023-06-26T08:23:12;2.35;;;1.40;;
22007;SDS011;11168;56.976;24.168;2023-06-26T08:25:39;1.85;;;1.50;;
22007;SDS011;11168;56.976;24.168;2023-06-26T08:28:06;2.85;;;1.75;;
22007;SDS011;11168;56.976;24.168;2023-06-26T08:30:33;3.47;;;1.73;;
22007;SDS011;11168;56.976;24.168;2023-06-26T08:33:01;3.05;;;1.60;;
22007;SDS011;11168;56.976;24.168;2023-06-26T08:35:28;1.63;;;1.30;;
22007;SDS011;11168;56.976;24.168;2023-06-26T08:37:56;2.45;;;1.40;;
22007;SDS011;11168;56.976;24.168;2023-06-26T08:40:23;1.90;;;1.60;;
22007;SDS011;11168;56.976;24.168;2023-06-26T08:42:50;3.65;;;1.67;;
22007;SDS011;11168;56.976;24.168;2023-06-26T08:45:19;1.73;;;1.63;;
22007;SDS011;11168;56.976;24.168;2023-06-26T08:47:47;2.88;;;1.73;;
22007;SDS011;11168;56.976;24.168;2023-06-26T08:52:49;2.00;;;1.77;;
22007;SDS011;11168;56.976;24.168;2023-06-26T08:55:23;1.85;;;1.48;;
22007;SDS011;11168;56.976;24.168;2023-06-26T08:57:52;3.20;;;1.70;;
22007;SDS011;11168;56.976;24.168;2023-06-26T09:00:19;2.10;;;1.80;;
22007;SDS011;11168;56.976;24.168;2023-06-26T09:02:48;3.22;;;1.73;;
22007;SDS011;11168;56.976;24.168;2023-06-26T09:05:15;2.92;;;1.70;;
22007;SDS011;11168;56.976;24.168;2023-06-26T09:07:43;2.75;;;1.73;;
22007;SDS011;11168;56.976;24.168;2023-06-26T09:10:11;2.20;;;1.88;;
22007;SDS011;11168;56.976;24.168;2023-06-26T09:12:39;3.65;;;1.90;;
22007;SDS011;11168;56.976;24.168;2023-06-26T09:15:06;1.98;;;1.73;;
22007;SDS011;11168;56.976;24.168;2023-06-26T09:17:39;3.67;;;1.98;;
22007;SDS011;11168;56.976;24.168;2023-06-26T09:20:09;2.53;;;1.83;;
22007;SDS011;11168;56.976;24.168;2023-06-26T09:22:37;2.40;;;1.55;;
22007;SDS011;11168;56.976;24.168;2023-06-26T09:25:08;2.03;;;1.60;;
22007;SDS011;11168;56.976;24.168;2023-06-26T09:27:37;3.35;;;1.50;;
22007;SDS011;11168;56.976;24.168;2023-06-26T09:30:04;1.95;;;1.75;;
22007;SDS011;11168;56.976;24.168;2023-06-26T09:32:35;2.72;;;1.70;;
22007;SDS011;11168;56.976;24.168;2023-06-26T09:35:05;1.55;;;1.30;;
22007;SDS011;11168;56.976;24.168;2023-06-26T09:37:33;4.80;;;1.30;;
22007;SDS011;11168;56.976;24.168;2023-06-26T09:40:02;1.88;;;1.38;;
22007;SDS011;11168;56.976;24.168;2023-06-26T09:42:30;1.33;;;1.23;;
22007;SDS011;11168;56.976;24.168;2023-06-26T09:44:57;2.58;;;1.30;;
22007;SDS011;11168;56.976;24.168;2023-06-26T09:47:24;4.25;;;1.60;;
22007;SDS011;11168;56.976;24.168;2023-06-26T09:49:52;2.40;;;1.42;;
22007;SDS011;11168;56.976;24.168;2023-06-26T09:52:21;1.60;;;1.50;;
22007;SDS011;11168;56.976;24.168;2023-06-26T09:54:52;2.45;;;1.45;;
22007;SDS011;11168;56.976;24.168;2023-06-26T09:57:35;2.15;;;1.48;;
22007;SDS011;11168;56.976;24.168;2023-06-26T10:00:02;2.00;;;1.67;;
22007;SDS011;11168;56.976;24.168;2023-06-26T10:02:31;1.60;;;1.50;;
22007;SDS011;11168;56.976;24.168;2023-06-26T10:04:58;1.73;;;1.40;;
22007;SDS011;11168;56.976;24.168;2023-06-26T10:07:26;1.75;;;1.65;;
22007;SDS011;11168;56.976;24.168;2023-06-26T10:09:53;1.65;;;1.52;;
22007;SDS011;11168;56.976;24.168;2023-06-26T10:12:29;2.20;;;1.30;;
22007;SDS011;11168;56.976;24.168;2023-06-26T10:14:57;5.30;;;1.38;;
22007;SDS011;11168;56.976;24.168;2023-06-26T10:17:25;1.50;;;1.40;;
22007;SDS011;11168;56.976;24.168;2023-06-26T10:19:57;1.85;;;1.40;;
22007;SDS011;11168;56.976;24.168;2023-06-26T10:22:44;2.20;;;1.40;;
22007;SDS011;11168;56.976;24.168;2023-06-26T10:25:14;2.90;;;1.48;;
22007;SDS011;11168;56.976;24.168;2023-06-26T10:27:51;2.75;;;1.50;;
22007;SDS011;11168;56.976;24.168;2023-06-26T10:30:31;2.20;;;1.33;;
22007;SDS011;11168;56.976;24.168;2023-06-26T10:33:01;2.03;;;1.50;;
22007;SDS011;11168;56.976;24.168;2023-06-26T10:35:30;3.50;;;1.50;;
22007;SDS011;11168;56.976;24.168;2023-06-26T10:38:01;3.15;;;1.90;;
22007;SDS011;11168;56.976;24.168;2023-06-26T10:40:40;2.45;;;1.42;;
22007;SDS011;11168;56.976;24.168;2023-06-26T10:43:08;1.77;;;1.45;;
22007;SDS011;11168;56.976;24.168;2023-06-26T10:45:35;2.58;;;1.63;;
22007;SDS011;11168;56.976;24.168;2023-06-26T10:48:03;2.08;;;1.50;;
22007;SDS011;11168;56.976;24.168;2023-06-26T10:50:32;1.67;;;1.30;;
22007;SDS011;11168;56.976;24.168;2023-06-26T10:55:41;1.45;;;1.35;;
22007;SDS011;11168;56.976;24.168;2023-06-26T11:01:25;1.92;;;1.50;;
22007;SDS011;11168;56.976;24.168;2023-06-26T11:06:28;2.72;;;1.50;;
22007;SDS011;11168;56.976;24.168;2023-06-26T11:14:19;2.55;;;2.05;;
22007;SDS011;11168;56.976;24.168;2023-06-26T11:16:51;1.77;;;1.67;;
22007;SDS011;11168;56.976;24.168;2023-06-26T11:19:19;3.28;;;2.30;;
22007;SDS011;11168;56.976;24.168;2023-06-26T11:21:47;4.60;;;1.90;;
22007;SDS011;11168;56.976;24.168;2023-06-26T11:24:14;5.28;;;2.20;;
22007;SDS011;11168;56.976;24.168;2023-06-26T11:26:42;2.38;;;2.05;;
22007;SDS011;11168;56.976;24.168;2023-06-26T11:29:11;2.30;;;2.10;;
22007;SDS011;11168;56.976;24.168;2023-06-26T11:31:39;2.42;;;1.85;;
22007;SDS011;11168;56.976;24.168;2023-06-26T11:36:38;2.22;;;2.03;;
22007;SDS011;11168;56.976;24.168;2023-06-26T11:39:05;2.83;;;2.28;;
22007;SDS011;11168;56.976;24.168;2023-06-26T11:41:34;2.50;;;1.85;;
22007;SDS011;11168;56.976;24.168;2023-06-26T11:44:02;2.97;;;1.83;;
22007;SDS011;11168;56.976;24.168;2023-06-26T11:46:31;3.90;;;2.20;;
22007;SDS011;11168;56.976;24.168;2023-06-26T11:49:04;2.72;;;1.88;;
22007;SDS011;11168;56.976;24.168;2023-06-26T11:51:33;2.85;;;2.50;;
22007;SDS011;11168;56.976;24.168;2023-06-26T11:54:04;3.85;;;2.20;;
22007;SDS011;11168;56.976;24.168;2023-06-26T11:56:32;3.72;;;2.25;;
22007;SDS011;11168;56.976;24.168;2023-06-26T12:01:34;2.80;;;2.30;;
22007;SDS011;11168;56.976;24.168;2023-06-26T12:04:04;2.70;;;2.45;;
22007;SDS011;11168;56.976;24.168;2023-06-26T12:06:36;2.40;;;2.20;;
22007;SDS011;11168;56.976;24.168;2023-06-26T12:09:04;2.78;;;2.22;;
22007;SDS011;11168;56.976;24.168;2023-06-26T12:11:34;2.55;;;2.30;;
22007;SDS011;11168;56.976;24.168;2023-06-26T12:14:03;2.38;;;2.17;;
22007;SDS011;11168;56.976;24.168;2023-06-26T12:16:31;2.78;;;2.30;;
22007;SDS011;11168;56.976;24.168;2023-06-26T12:19:04;2.90;;;1.92;;
22007;SDS011;11168;56.976;24.168;2023-06-26T12:24:08;4.75;;;2.40;;
22007;SDS011;11168;56.976;24.168;2023-06-26T12:26:36;2.45;;;2.10;;
22007;SDS011;11168;56.976;24.168;2023-06-26T12:29:07;2.45;;;1.75;;
22007;SDS011;11168;56.976;24.168;2023-06-26T12:31:36;3.80;;;2.10;;
22007;SDS011;11168;56.976;24.168;2023-06-26T12:34:11;2.08;;;1.88;;
22007;SDS011;11168;56.976;24.168;2023-06-26T12:36:44;3.20;;;2.00;;
22007;SDS011;11168;56.976;24.168;2023-06-26T12:39:14;2.27;;;2.10;;
22007;SDS011;11168;56.976;24.168;2023-06-26T12:41:48;4.05;;;2.35;;
22007;SDS011;11168;56.976;24.168;2023-06-26T12:44:28;2.30;;;2.10;;
22007;SDS011;11168;56.976;24.168;2023-06-26T12:46:57;3.17;;;2.30;;
22007;SDS011;11168;56.976;24.168;2023-06-26T12:49:36;4.28;;;2.20;;
22007;SDS011;11168;56.976;24.168;2023-06-26T12:52:05;2.30;;;2.10;;
22007;SDS011;11168;56.976;24.168;2023-06-26T12:54:34;2.35;;;2.15;;
22007;SDS011;11168;56.976;24.168;2023-06-26T12:57:02;3.08;;;1.92;;
22007;SDS011;11168;56.976;24.168;2023-06-26T12:59:33;2.65;;;1.92;;
22007;SDS011;11168;56.976;24.168;2023-06-26T13:02:02;3.05;;;2.03;;
22007;SDS011;11168;56.976;24.168;2023-06-26T13:04:30;4.18;;;2.05;;
22007;SDS011;11168;56.976;24.168;2023-06-26T13:06:57;3.33;;;2.30;;
22007;SDS011;11168;56.976;24.168;2023-06-26T13:09:24;2.95;;;2.20;;
22007;SDS011;11168;56.976;24.168;2023-06-26T13:11:52;3.33;;;2.30;;
22007;SDS011;11168;56.976;24.168;2023-06-26T13:14:19;2.38;;;2.17;;
22007;SDS011;11168;56.976;24.168;2023-06-26T13:16:47;3.63;;;2.72;;
22007;SDS011;11168;56.976;24.168;2023-06-26T13:19:14;2.30;;;2.10;;
22007;SDS011;11168;56.976;24.168;2023-06-26T13:21:41;2.92;;;2.20;;
22007;SDS011;11168;56.976;24.168;2023-06-26T13:24:09;3.42;;;2.20;;
22007;SDS011;11168;56.976;24.168;2023-06-26T13:26:36;2.20;;;2.00;;
22007;SDS011;11168;56.976;24.168;2023-06-26T13:29:04;3.50;;;3.20;;
22007;SDS011;11168;56.976;24.168;2023-06-26T13:31:31;2.90;;;2.25;;
22007;SDS011;11168;56.976;24.168;2023-06-26T13:33:59;4.57;;;2.30;;
22007;SDS011;11168;56.976;24.168;2023-06-26T13:36:30;2.22;;;2.00;;
22007;SDS011;11168;56.976;24.168;2023-06-26T13:39:01;2.88;;;1.98;;
22007;SDS011;11168;56.976;24.168;2023-06-26T13:41:29;2.00;;;1.70;;
22007;SDS011;11168;56.976;24.168;2023-06-26T13:43:56;4.32;;;2.38;;
22007;SDS011;11168;56.976;24.168;2023-06-26T13:46:32;2.50;;;2.30;;
22007;SDS011;11168;56.976;24.168;2023-06-26T13:49:00;5.03;;;2.20;;
22007;SDS011;11168;56.976;24.168;2023-06-26T13:51:27;3.33;;;2.28;;
22007;SDS011;11168;56.976;24.168;2023-06-26T13:53:53;3.13;;;2.40;;
22007;SDS011;11168;56.976;24.168;2023-06-26T13:56:21;3.08;;;2.05;;
22007;SDS011;11168;56.976;24.168;2023-06-26T13:58:49;3.17;;;2.30;;
22007;SDS011;11168;56.976;24.168;2023-06-26T14:01:16;3.38;;;2.25;;
22007;SDS011;11168;56.976;24.168;2023-06-26T14:03:46;2.83;;;2.20;;
22007;SDS011;11168;56.976;24.168;2023-06-26T14:06:15;2.85;;;2.00;;
22007;SDS011;11168;56.976;24.168;2023-06-26T14:08:44;4.50;;;2.08;;
22007;SDS011;11168;56.976;24.168;2023-06-26T14:11:12;2.95;;;2.00;;
22007;SDS011;11168;56.976;24.168;2023-06-26T14:13:42;5.13;;;2.15;;
22007;SDS011;11168;56.976;24.168;2023-06-26T14:16:12;3.85;;;2.00;;
22007;SDS011;11168;56.976;24.168;2023-06-26T14:18:39;2.15;;;1.90;;
22007;SDS011;11168;56.976;24.168;2023-06-26T14:21:10;5.75;;;2.33;;
22007;SDS011;11168;56.976;24.168;2023-06-26T14:23:38;3.80;;;1.88;;
22007;SDS011;11168;56.976;24.168;2023-06-26T14:26:05;2.67;;;2.47;;
22007;SDS011;11168;56.976;24.168;2023-06-26T14:28:32;8.02;;;2.50;;
22007;SDS011;11168;56.976;24.168;2023-06-26T14:31:00;3.97;;;2.08;;
22007;SDS011;11168;56.976;24.168;2023-06-26T14:33:27;2.97;;;2.42;;
22007;SDS011;11168;56.976;24.168;2023-06-26T14:35:54;3.70;;;2.33;;
22007;SDS011;11168;56.976;24.168;2023-06-26T14:38:23;4.25;;;2.00;;
22007;SDS011;11168;56.976;24.168;2023-06-26T14:40:50;3.67;;;2.38;;
22007;SDS011;11168;56.976;24.168;2023-06-26T14:43:18;3.25;;;1.98;;
22007;SDS011;11168;56.976;24.168;2023-06-26T14:45:46;3.67;;;2.10;;
22007;SDS011;11168;56.976;24.168;2023-06-26T14:48:14;6.35;;;2.38;;
22007;SDS011;11168;56.976;24.168;2023-06-26T14:50:41;2.80;;;2.17;;
22007;SDS011;11168;56.976;24.168;2023-06-26T14:53:09;5.47;;;2.20;;
22007;SDS011;11168;56.976;24.168;2023-06-26T14:55:37;3.55;;;2.10;;
22007;SDS011;11168;56.976;24.168;2023-06-26T14:58:05;2.60;;;2.30;;
22007;SDS011;11168;56.976;24.168;2023-06-26T15:00:34;3.67;;;2.60;;
22007;SDS011;11168;56.976;24.168;2023-06-26T15:03:01;5.32;;;2.50;;
22007;SDS011;11168;56.976;24.168;2023-06-26T15:05:31;3.47;;;2.38;;
22007;SDS011;11168;56.976;24.168;2023-06-26T15:08:00;2.72;;;2.20;;
22007;SDS011;11168;56.976;24.168;2023-06-26T15:10:30;3.63;;;2.65;;
22007;SDS011;11168;56.976;24.168;2023-06-26T15:13:00;2.85;;;2.65;;